createdAt,value
2019-05-06T00:02:24.902Z,3.58
2019-05-06T00:04:54.183Z,3.65
2019-05-06T00:07:21.803Z,3.30
2019-05-06T00:09:50.303Z,3.45
2019-05-06T00:12:18.773Z,3.65
2019-05-06T00:14:47.341Z,3.80
2019-05-06T00:17:15.820Z,3.12
2019-05-06T00:19:44.766Z,3.55
2019-05-06T00:22:14.196Z,2.83
2019-05-06T00:24:45.877Z,3.70
2019-05-06T00:27:34.282Z,3.33
2019-05-06T00:30:04.506Z,3.40
2019-05-06T00:32:30.897Z,3.40
2019-05-06T00:34:59.623Z,3.30
2019-05-06T00:37:28.033Z,3.50
2019-05-06T00:40:00.236Z,3.58
2019-05-06T00:42:30.563Z,4.20
2019-05-06T00:44:59.351Z,3.60
2019-05-06T00:47:27.841Z,3.90
2019-05-06T00:49:56.332Z,3.50
2019-05-06T00:52:26.015Z,4.25
2019-05-06T00:54:54.703Z,3.25
2019-05-06T00:57:23.748Z,3.17
2019-05-06T00:59:53.852Z,3.85
2019-05-06T01:02:20.670Z,3.42
2019-05-06T01:04:49.404Z,3.72
2019-05-06T01:07:18.086Z,3.27
2019-05-06T01:09:46.586Z,3.15
2019-05-06T01:12:15.120Z,2.77
2019-05-06T01:14:46.027Z,3.10
2019-05-06T01:17:14.475Z,3.25
2019-05-06T01:19:43.045Z,3.92
2019-05-06T01:22:11.436Z,3.62
2019-05-06T01:24:39.919Z,3.52
2019-05-06T01:27:08.413Z,3.45
2019-05-06T01:29:36.902Z,3.50
2019-05-06T01:32:05.381Z,3.12
2019-05-06T01:34:34.128Z,3.70
2019-05-06T01:37:03.670Z,3.08
2019-05-06T01:39:50.021Z,3.30
2019-05-06T01:42:29.152Z,3.20
2019-05-06T01:44:57.853Z,3.10
2019-05-06T01:47:26.297Z,3.35
2019-05-06T01:49:54.744Z,3.20
2019-05-06T01:52:24.111Z,3.17
2019-05-06T01:54:51.709Z,3.27
2019-05-06T01:57:20.462Z,3.40
2019-05-06T01:59:48.985Z,3.40
2019-05-06T02:02:17.473Z,3.50
2019-05-06T02:04:45.950Z,3.77
2019-05-06T02:07:14.552Z,3.98
2019-05-06T02:09:44.701Z,3.98
2019-05-06T02:12:11.313Z,4.22
2019-05-06T02:14:39.812Z,4.08
2019-05-06T02:17:08.779Z,4.10
2019-05-06T02:19:37.177Z,4.25
2019-05-06T02:22:19.513Z,4.20
2019-05-06T02:24:54.185Z,4.35
2019-05-06T02:27:24.740Z,3.67
2019-05-06T02:29:55.409Z,3.72
2019-05-06T02:32:31.394Z,4.55
2019-05-06T02:35:26.722Z,3.72
2019-05-06T02:37:55.264Z,4.28
2019-05-06T02:40:25.264Z,3.55
2019-05-06T02:42:54.568Z,4.20
2019-05-06T02:45:24.007Z,4.17
2019-05-06T02:48:22.942Z,3.77
2019-05-06T02:50:57.970Z,3.87
2019-05-06T02:53:26.449Z,5.33
2019-05-06T02:55:55.279Z,4.35
2019-05-06T02:58:24.028Z,4.78
2019-05-06T03:00:53.908Z,4.10
2019-05-06T03:03:23.276Z,7.55
2019-05-06T03:05:49.498Z,4.12
2019-05-06T03:08:18.009Z,4.20
2019-05-06T03:10:46.498Z,4.58
2019-05-06T03:13:14.981Z,4.37
2019-05-06T03:15:43.905Z,3.92
2019-05-06T03:18:14.841Z,3.62
2019-05-06T03:20:53.302Z,3.77
2019-05-06T03:23:23.461Z,4.40
2019-05-06T03:25:49.061Z,4.20
2019-05-06T03:28:17.545Z,4.72
2019-05-06T03:30:46.421Z,4.22
2019-05-06T03:33:37.562Z,4.12
2019-05-06T03:35:58.070Z,3.67
2019-05-06T03:38:13.785Z,4.20
2019-05-06T03:40:45.094Z,4.53
2019-05-06T03:43:09.042Z,4.70
2019-05-06T03:45:48.309Z,4.37
2019-05-06T03:48:24.544Z,3.92
2019-05-06T03:50:55.891Z,4.08
2019-05-06T03:53:23.277Z,4.50
2019-05-06T03:55:50.345Z,3.60
2019-05-06T03:58:18.776Z,4.00
2019-05-06T04:00:47.510Z,3.77
2019-05-06T04:03:15.938Z,3.52
2019-05-06T04:05:44.448Z,3.42
2019-05-06T04:08:12.873Z,4.95
2019-05-06T04:10:43.582Z,3.80
2019-05-06T04:13:09.844Z,3.92
2019-05-06T04:15:57.070Z,4.33
2019-05-06T04:18:25.923Z,4.03
2019-05-06T04:20:58.904Z,4.62
2019-05-06T04:23:44.397Z,3.75
2019-05-06T04:26:53.135Z,4.10
2019-05-06T04:29:19.352Z,3.92
2019-05-06T04:31:47.843Z,4.08
2019-05-06T04:34:19.737Z,3.77
2019-05-06T04:36:44.698Z,3.95
2019-05-06T04:39:13.408Z,3.85
2019-05-06T04:41:43.418Z,3.98
2019-05-06T04:44:13.587Z,3.87
2019-05-06T04:46:39.662Z,4.00
2019-05-06T04:49:10.753Z,4.40
2019-05-06T04:51:37.200Z,4.35
2019-05-06T04:54:05.125Z,4.20
2019-05-06T04:56:33.867Z,4.03
2019-05-06T04:59:05.778Z,3.58
2019-05-06T05:01:33.880Z,4.35
2019-05-06T05:03:59.315Z,3.85
2019-05-06T05:06:27.832Z,3.95
2019-05-06T05:08:56.248Z,4.10
2019-05-06T05:11:33.310Z,4.00
2019-05-06T05:14:25.313Z,4.45
2019-05-06T05:16:56.329Z,7.20
2019-05-06T05:19:24.788Z,5.30
2019-05-06T05:22:05.711Z,5.90
2019-05-06T05:24:34.665Z,4.47
2019-05-06T05:27:03.241Z,4.10
2019-05-06T05:29:32.521Z,4.05
2019-05-06T05:32:02.083Z,4.28
2019-05-06T05:34:39.571Z,4.28
2019-05-06T05:37:16.416Z,4.15
2019-05-06T05:39:44.916Z,4.20
2019-05-06T05:42:24.083Z,3.80
2019-05-06T05:44:52.879Z,4.10
2019-05-06T05:47:22.041Z,4.22
2019-05-06T05:50:13.302Z,4.12
2019-05-06T05:52:42.572Z,4.37
2019-05-06T05:55:12.057Z,4.30
2019-05-06T05:57:38.518Z,4.58
2019-05-06T06:00:07.020Z,4.15
2019-05-06T06:02:35.547Z,4.42
2019-05-06T06:05:04.204Z,4.10
2019-05-06T06:07:32.840Z,4.05
2019-05-06T06:10:07.049Z,4.05
2019-05-06T06:12:35.577Z,4.20
2019-05-06T06:15:23.412Z,3.60
2019-05-06T06:18:03.076Z,3.55
2019-05-06T06:20:48.744Z,4.03
2019-05-06T06:23:23.058Z,3.85
2019-05-06T06:25:52.773Z,3.50
2019-05-06T06:28:19.609Z,4.05
2019-05-06T06:30:52.901Z,4.10
2019-05-06T06:33:22.336Z,4.33
2019-05-06T06:35:57.729Z,4.08
2019-05-06T06:38:52.689Z,3.90
2019-05-06T06:41:19.791Z,3.75
2019-05-06T06:43:49.380Z,3.60
2019-05-06T06:46:17.795Z,4.67
2019-05-06T06:48:46.263Z,4.10
2019-05-06T06:51:14.771Z,4.60
2019-05-06T06:53:43.229Z,4.37
2019-05-06T06:56:32.958Z,4.10
2019-05-06T06:59:13.071Z,4.17
2019-05-06T07:01:47.653Z,4.00
2019-05-06T07:04:23.033Z,4.30
2019-05-06T07:06:53.019Z,4.17
2019-05-06T07:09:19.800Z,4.07
2019-05-06T07:11:48.224Z,4.60
2019-05-06T07:14:16.730Z,3.83
2019-05-06T07:16:45.182Z,4.15
2019-05-06T07:19:14.117Z,4.42
2019-05-06T07:21:52.257Z,4.25
2019-05-06T07:24:19.728Z,3.98
2019-05-06T07:26:53.243Z,4.42
2019-05-06T07:29:26.345Z,4.60
2019-05-06T07:31:50.203Z,4.30
2019-05-06T07:34:18.685Z,4.47
2019-05-06T07:36:47.156Z,4.78
2019-05-06T07:39:15.945Z,3.85
2019-05-06T07:41:47.926Z,4.67
2019-05-06T07:44:34.470Z,4.72
2019-05-06T07:47:13.297Z,4.78
2019-05-06T07:49:39.054Z,4.72
2019-05-06T07:52:07.461Z,7.12
2019-05-06T07:54:36.031Z,4.65
2019-05-06T07:57:04.514Z,4.67
2019-05-06T07:59:33.510Z,4.58
2019-05-06T08:02:02.282Z,4.45
2019-05-06T08:04:32.314Z,4.58
2019-05-06T08:06:58.746Z,4.55
2019-05-06T08:09:27.255Z,4.65
2019-05-06T08:11:55.750Z,4.53
2019-05-06T08:14:24.575Z,4.62
2019-05-06T08:16:58.547Z,4.30
2019-05-06T08:19:27.013Z,4.97
2019-05-06T08:21:55.557Z,5.20
2019-05-06T08:24:23.987Z,4.60
2019-05-06T08:26:52.472Z,5.60
2019-05-06T08:29:22.472Z,4.90
2019-05-06T08:31:49.474Z,4.72
2019-05-06T08:34:17.932Z,5.47
2019-05-06T08:36:57.981Z,4.35
2019-05-06T08:39:26.483Z,4.83
2019-05-06T08:41:54.939Z,5.12
2019-05-06T08:44:23.430Z,4.45
2019-05-06T08:46:53.237Z,5.58
2019-05-06T08:49:22.550Z,4.92
2019-05-06T08:52:02.251Z,5.37
2019-05-06T08:54:33.728Z,5.33
2019-05-06T08:57:02.575Z,5.55
2019-05-06T08:59:32.081Z,5.42
2019-05-06T09:01:59.878Z,5.65
2019-05-06T09:04:28.579Z,5.55
2019-05-06T09:06:57.051Z,5.28
2019-05-06T09:09:25.783Z,4.83
2019-05-06T09:11:54.286Z,5.87
2019-05-06T09:14:23.690Z,5.03
2019-05-06T09:16:53.918Z,5.75
2019-05-06T09:19:20.025Z,6.22
2019-05-06T09:21:48.740Z,5.62
2019-05-06T09:24:17.188Z,5.92
2019-05-06T09:27:02.987Z,5.62
2019-05-06T09:29:49.429Z,5.53
2019-05-06T09:32:22.535Z,5.40
2019-05-06T09:34:53.854Z,6.05
2019-05-06T09:37:42.928Z,6.20
2019-05-06T09:40:10.146Z,6.22
2019-05-06T09:42:38.619Z,5.42
2019-05-06T09:45:07.121Z,6.40
2019-05-06T09:48:04.320Z,5.42
2019-05-06T09:50:45.497Z,5.17
2019-05-06T09:53:13.081Z,4.45
2019-05-06T09:56:04.568Z,4.70
2019-05-06T09:58:33.498Z,4.20
2019-05-06T10:01:02.761Z,4.22
2019-05-06T10:03:32.250Z,3.83
2019-05-06T10:05:59.540Z,4.15
2019-05-06T10:08:28.315Z,3.90
2019-05-06T10:10:59.818Z,3.85
2019-05-06T10:13:25.267Z,4.30
2019-05-06T10:15:53.756Z,4.12
2019-05-06T10:18:22.715Z,3.60
2019-05-06T10:20:50.759Z,4.03
2019-05-06T10:23:19.225Z,3.80
2019-05-06T10:25:47.760Z,3.37
2019-05-06T10:28:23.289Z,3.85
2019-05-06T10:30:50.467Z,4.33
2019-05-06T10:33:19.624Z,3.62
2019-05-06T10:35:48.042Z,3.47
2019-05-06T10:38:22.798Z,3.45
2019-05-06T10:41:00.772Z,3.50
2019-05-06T10:43:27.721Z,4.28
2019-05-06T10:45:56.214Z,4.28
2019-05-06T10:48:25.009Z,4.12
2019-05-06T10:50:55.458Z,3.65
2019-05-06T10:53:25.054Z,4.23
2019-05-06T10:55:54.806Z,4.25
2019-05-06T10:58:23.751Z,4.03
2019-05-06T11:00:58.142Z,3.75
2019-05-06T11:03:27.634Z,3.42
2019-05-06T11:05:55.647Z,4.10
2019-05-06T11:08:24.324Z,3.90
2019-05-06T11:10:53.720Z,4.58
2019-05-06T11:13:24.217Z,4.08
2019-05-06T11:15:55.056Z,4.03
2019-05-06T11:18:19.057Z,3.77
2019-05-06T11:20:47.482Z,4.53
2019-05-06T11:23:15.989Z,4.00
2019-05-06T11:25:44.455Z,4.12
2019-05-06T11:28:34.893Z,3.75
2019-05-06T11:31:13.919Z,3.45
2019-05-06T11:33:49.709Z,4.28
2019-05-06T11:36:23.839Z,4.45
2019-05-06T11:38:52.513Z,4.67
2019-05-06T11:41:23.373Z,5.03
2019-05-06T11:43:49.821Z,4.60
2019-05-06T11:46:18.299Z,5.03
2019-05-06T11:48:46.781Z,5.05
2019-05-06T11:51:17.261Z,5.25
2019-05-06T11:53:45.719Z,4.70
2019-05-06T11:56:14.767Z,4.50
2019-05-06T11:58:48.604Z,4.30
2019-05-06T12:01:23.704Z,5.12
2019-05-06T12:03:52.273Z,5.10
2019-05-06T12:06:22.734Z,6.03
2019-05-06T12:08:49.477Z,5.90
2019-05-06T12:11:17.950Z,5.15
2019-05-06T12:13:46.425Z,5.55
2019-05-06T12:16:14.942Z,6.62
2019-05-06T12:18:44.117Z,7.00
2019-05-06T12:21:18.851Z,5.75
2019-05-06T12:23:44.887Z,5.83
2019-05-06T12:26:10.142Z,5.65
2019-05-06T12:28:38.645Z,5.50
2019-05-06T12:31:07.184Z,5.37
2019-05-06T12:33:38.809Z,4.78
2019-05-06T12:36:12.866Z,4.83
2019-05-06T12:39:00.257Z,4.42
2019-05-06T12:41:28.744Z,4.60
2019-05-06T12:43:57.219Z,4.50
2019-05-06T12:46:37.467Z,4.65
2019-05-06T12:49:05.933Z,4.87
2019-05-06T12:51:34.435Z,5.00
2019-05-06T12:54:03.602Z,4.90
2019-05-06T12:56:31.643Z,5.40
2019-05-06T12:59:02.079Z,6.50
2019-05-06T13:01:28.656Z,5.67
2019-05-06T13:03:57.128Z,4.67
2019-05-06T13:06:26.483Z,4.75
2019-05-06T13:09:01.334Z,4.95
2019-05-06T13:11:22.541Z,5.58
2019-05-06T13:13:59.325Z,5.90
2019-05-06T13:16:22.859Z,5.28
2019-05-06T13:18:51.776Z,5.37
2019-05-06T13:21:17.797Z,5.17
2019-05-06T13:23:50.041Z,5.30
2019-05-06T13:26:18.789Z,4.80
2019-05-06T13:28:50.412Z,5.08
2019-05-06T13:31:21.595Z,4.80
2019-05-06T13:33:55.086Z,5.35
2019-05-06T13:36:23.429Z,4.53
2019-05-06T13:39:08.375Z,4.47
2019-05-06T13:41:22.165Z,4.53
2019-05-06T13:44:03.002Z,4.53
2019-05-06T13:46:33.434Z,4.72
2019-05-06T13:49:38.623Z,3.98
2019-05-06T13:52:08.845Z,4.65
2019-05-06T13:54:37.317Z,4.10
2019-05-06T13:57:07.051Z,4.55
2019-05-06T13:59:36.926Z,5.08
2019-05-06T14:02:21.873Z,4.30
2019-05-06T14:04:52.667Z,4.28
2019-05-06T14:07:20.150Z,4.47
2019-05-06T14:09:48.615Z,4.17
2019-05-06T14:12:17.700Z,3.77
2019-05-06T14:14:46.184Z,3.75
2019-05-06T14:17:14.666Z,3.12
2019-05-06T14:19:43.221Z,3.42
2019-05-06T14:22:12.510Z,3.25
2019-05-06T14:24:43.124Z,3.80
2019-05-06T14:27:11.212Z,3.20
2019-05-06T14:29:46.479Z,3.12
2019-05-06T14:32:15.054Z,3.50
2019-05-06T14:34:43.732Z,3.40
2019-05-06T14:37:12.244Z,3.33
2019-05-06T14:39:52.832Z,3.60
2019-05-06T14:42:12.762Z,3.73
2019-05-06T14:44:39.650Z,3.77
2019-05-06T14:47:28.227Z,3.22
2019-05-06T14:49:56.938Z,3.45
2019-05-06T14:52:25.383Z,3.27
2019-05-06T14:54:59.780Z,3.55
2019-05-06T14:57:28.266Z,3.70
2019-05-06T14:59:56.790Z,4.00
2019-05-06T15:02:27.173Z,3.27
2019-05-06T15:04:55.231Z,3.77
2019-05-06T15:07:23.726Z,3.45
2019-05-06T15:10:02.436Z,3.70
2019-05-06T15:12:22.884Z,3.65
2019-05-06T15:14:52.621Z,4.12
2019-05-06T15:17:18.852Z,3.35
2019-05-06T15:19:48.357Z,3.52
2019-05-06T15:22:16.827Z,3.30
2019-05-06T15:24:45.309Z,3.42
2019-05-06T15:27:14.293Z,3.15
2019-05-06T15:29:42.794Z,2.65
2019-05-06T15:32:17.960Z,2.90
2019-05-06T15:35:14.362Z,3.00
2019-05-06T15:37:46.292Z,2.98
2019-05-06T15:40:14.730Z,3.12
2019-05-06T15:42:43.209Z,2.77
2019-05-06T15:45:12.641Z,3.40
2019-05-06T15:47:42.640Z,2.83
2019-05-06T15:50:09.704Z,2.77
2019-05-06T15:52:38.169Z,2.62
2019-05-06T15:55:06.622Z,4.00
2019-05-06T15:57:36.433Z,2.62
2019-05-06T16:00:04.938Z,3.10
2019-05-06T16:02:33.921Z,3.12
2019-05-06T16:05:11.449Z,2.58
2019-05-06T16:07:34.245Z,2.72
2019-05-06T16:09:58.864Z,2.25
2019-05-06T16:12:27.333Z,2.70
2019-05-06T16:14:56.102Z,3.17
2019-05-06T16:17:24.629Z,3.10
2019-05-06T16:19:53.374Z,2.60
2019-05-06T16:22:22.578Z,2.52
2019-05-06T16:24:54.673Z,3.08
2019-05-06T16:27:23.186Z,3.27
2019-05-06T16:29:52.989Z,2.80
2019-05-06T16:32:21.984Z,2.87
2019-05-06T16:34:49.297Z,2.90
2019-05-06T16:37:18.060Z,2.80
2019-05-06T16:39:46.631Z,3.15
2019-05-06T16:42:15.251Z,2.80
2019-05-06T16:44:45.389Z,2.80
2019-05-06T16:47:13.651Z,3.02
2019-05-06T16:49:42.313Z,2.60
2019-05-06T16:52:12.917Z,2.37
2019-05-06T16:54:39.176Z,2.98
2019-05-06T16:57:14.349Z,3.10
2019-05-06T16:59:42.901Z,2.77
2019-05-06T17:02:17.364Z,3.20
2019-05-06T17:05:05.134Z,2.62
2019-05-06T17:07:33.932Z,3.30
2019-05-06T17:10:03.432Z,3.20
2019-05-06T17:12:31.948Z,4.03
2019-05-06T17:14:59.058Z,3.00
2019-05-06T17:17:39.771Z,3.20
2019-05-06T17:19:56.019Z,3.15
2019-05-06T17:22:24.503Z,3.10
2019-05-06T17:24:53.005Z,3.15
2019-05-06T17:27:23.553Z,2.72
2019-05-06T17:29:56.238Z,3.22
2019-05-06T17:32:33.318Z,3.33
2019-05-06T17:35:02.447Z,3.65
2019-05-06T17:37:46.102Z,3.30
2019-05-06T17:40:15.097Z,3.65
2019-05-06T17:42:43.712Z,3.35
2019-05-06T17:45:32.071Z,4.12
2019-05-06T17:48:04.289Z,3.60
2019-05-06T17:50:33.376Z,3.12
2019-05-06T17:53:01.190Z,4.60
2019-05-06T17:55:29.664Z,2.80
2019-05-06T17:57:59.250Z,3.02
2019-05-06T18:00:27.648Z,3.35
2019-05-06T18:02:56.143Z,3.37
2019-05-06T18:05:24.908Z,2.90
2019-05-06T18:07:53.400Z,3.00
2019-05-06T18:10:22.184Z,3.02
2019-05-06T18:12:52.957Z,5.22
2019-05-06T18:15:18.808Z,4.10
2019-05-06T18:17:47.515Z,3.87
2019-05-06T18:20:15.947Z,4.20
2019-05-06T18:22:44.457Z,3.50
2019-05-06T18:25:12.921Z,3.30
2019-05-06T18:27:43.030Z,3.58
2019-05-06T18:30:19.386Z,3.40
2019-05-06T18:32:38.381Z,3.70
2019-05-06T18:35:06.892Z,3.90
2019-05-06T18:37:35.325Z,3.90
2019-05-06T18:40:05.118Z,3.80
2019-05-06T18:42:33.676Z,4.30
2019-05-06T18:45:02.753Z,3.87
2019-05-06T18:47:32.519Z,4.05
2019-05-06T18:50:02.132Z,3.60
2019-05-06T18:52:28.650Z,3.70
2019-05-06T18:54:57.373Z,3.70
2019-05-06T18:57:25.851Z,3.70
2019-05-06T18:59:55.079Z,3.55
2019-05-06T19:02:26.828Z,3.67
2019-05-06T19:04:57.132Z,3.77
2019-05-06T19:07:25.595Z,3.87
2019-05-06T19:09:58.414Z,3.10
2019-05-06T19:12:31.701Z,4.12
2019-05-06T19:14:55.516Z,4.78
2019-05-06T19:17:24.277Z,4.95
2019-05-06T19:19:52.775Z,4.15
2019-05-06T19:22:22.943Z,4.12
2019-05-06T19:24:51.931Z,4.58
2019-05-06T19:27:18.433Z,4.85
2019-05-06T19:29:46.907Z,5.10
2019-05-06T19:32:15.376Z,5.50
2019-05-06T19:34:43.879Z,5.12
2019-05-06T19:37:12.329Z,5.12
2019-05-06T19:39:42.898Z,5.40
2019-05-06T19:42:09.298Z,6.40
2019-05-06T19:44:37.746Z,6.17
2019-05-06T19:47:06.300Z,5.87
2019-05-06T19:49:35.069Z,6.00
2019-05-06T19:52:03.554Z,5.95
2019-05-06T19:54:33.091Z,6.47
2019-05-06T19:57:02.447Z,5.58
2019-05-06T19:59:29.067Z,6.28
2019-05-06T20:01:57.486Z,6.55
2019-05-06T20:04:25.958Z,6.10
2019-05-06T20:06:59.536Z,6.40
2019-05-06T20:09:45.764Z,5.95
2019-05-06T20:12:25.191Z,6.15
2019-05-06T20:14:55.057Z,6.58
2019-05-06T20:17:23.550Z,6.62
2019-05-06T20:19:52.361Z,6.10
2019-05-06T20:22:22.928Z,6.15
2019-05-06T20:24:49.223Z,6.60
2019-05-06T20:27:17.735Z,6.55
2019-05-06T20:29:46.275Z,6.60
2019-05-06T20:32:14.847Z,6.62
2019-05-06T20:34:43.345Z,6.70
2019-05-06T20:37:12.876Z,6.58
2019-05-06T20:39:40.209Z,6.42
2019-05-06T20:42:08.679Z,6.35
2019-05-06T20:44:37.234Z,5.90
2019-05-06T20:47:05.639Z,6.30
2019-05-06T20:49:34.105Z,6.45
2019-05-06T20:52:02.589Z,6.45
2019-05-06T20:54:32.525Z,7.10
2019-05-06T20:56:59.574Z,6.70
2019-05-06T20:59:28.028Z,7.10
2019-05-06T21:01:57.000Z,7.53
2019-05-06T21:04:26.307Z,10.10
2019-05-06T21:06:55.004Z,8.48
2019-05-06T21:09:23.853Z,7.85
2019-05-06T21:11:52.878Z,7.37
2019-05-06T21:14:22.672Z,7.72
2019-05-06T21:16:49.679Z,7.25
2019-05-06T21:19:18.482Z,6.80
2019-05-06T21:21:46.981Z,6.87
2019-05-06T21:24:15.493Z,7.20
2019-05-06T21:26:46.478Z,7.17
2019-05-06T21:29:12.890Z,7.40
2019-05-06T21:31:42.247Z,6.37
2019-05-06T21:34:12.650Z,7.10
2019-05-06T21:36:38.988Z,7.35
2019-05-06T21:39:07.422Z,7.50
2019-05-06T21:41:36.129Z,7.25
2019-05-06T21:44:04.573Z,6.83
2019-05-06T21:46:33.061Z,6.70
2019-05-06T21:49:01.552Z,7.62
2019-05-06T21:51:30.091Z,6.60
2019-05-06T21:53:58.513Z,7.10
2019-05-06T21:56:27.686Z,7.03
2019-05-06T21:58:56.206Z,6.95
2019-05-06T22:01:24.662Z,7.50
2019-05-06T22:03:53.156Z,7.33
2019-05-06T22:06:22.502Z,7.55
2019-05-06T22:08:56.154Z,7.12
2019-05-06T22:11:24.644Z,7.62
2019-05-06T22:14:01.167Z,9.80
2019-05-06T22:16:23.016Z,7.55
2019-05-06T22:18:50.035Z,7.62
2019-05-06T22:21:23.329Z,7.78
2019-05-06T22:23:59.324Z,7.22
2019-05-06T22:26:28.051Z,8.03
2019-05-06T22:28:56.449Z,8.03
2019-05-06T22:31:25.032Z,8.35
2019-05-06T22:33:53.730Z,8.23
2019-05-06T22:36:22.791Z,8.10
2019-05-06T22:38:53.081Z,9.23
2019-05-06T22:41:23.066Z,9.30
2019-05-06T22:43:49.503Z,8.50
2019-05-06T22:46:18.397Z,8.70
2019-05-06T22:48:46.540Z,8.65
2019-05-06T22:51:14.956Z,8.28
2019-05-06T22:53:43.413Z,8.43
2019-05-06T22:56:12.966Z,9.98
2019-05-06T22:58:42.741Z,8.88
2019-05-06T23:01:28.635Z,8.00
2019-05-06T23:03:57.093Z,8.80
2019-05-06T23:06:25.585Z,8.95
2019-05-06T23:09:13.462Z,8.30
2019-05-06T23:11:42.542Z,8.93
2019-05-06T23:14:12.464Z,7.65
2019-05-06T23:16:39.137Z,8.83
2019-05-06T23:19:07.598Z,8.85
2019-05-06T23:21:36.166Z,8.48
2019-05-06T23:24:04.992Z,8.05
2019-05-06T23:26:33.455Z,9.55
2019-05-06T23:29:02.539Z,9.38
2019-05-06T23:31:33.016Z,9.03
2019-05-06T23:33:58.906Z,9.13
2019-05-06T23:36:28.862Z,8.40
2019-05-06T23:39:18.779Z,9.43
2019-05-06T23:42:05.418Z,8.95
2019-05-06T23:44:54.512Z,9.18
2019-05-06T23:47:38.521Z,8.83
2019-05-06T23:50:24.881Z,9.93
2019-05-06T23:53:12.305Z,11.03
2019-05-06T23:55:57.621Z,10.82
2019-05-06T23:58:25.833Z,9.85
